Time;durP1;ratioP1;P1;durP2;ratioP2;P2;SDS_P1;SDS_P2;PMS_P1;PMS_P2;Temp;Humidity;BMP_temperature;BMP_pressure;BME280_temperature;BME280_humidity;BME280_pressure;Samples;Min_cycle;Max_cycle;Signal;HPM_P1;HPM_P2
2022/10/01 00:02:08;;;;;;;5.13;4.73;;;11.90;99.90;;;;;;5036689;28;20455;-80
2022/10/01 00:04:37;;;;;;;5.00;4.60;;;12.00;99.90;;;;;;5038104;28;20562;-80
2022/10/01 00:07:09;;;;;;;5.23;4.73;;;11.90;99.90;;;;;;5036465;28;20442;-79
2022/10/01 00:09:39;;;;;;;5.13;4.63;;;12.00;99.90;;;;;;5035888;28;21011;-79
2022/10/01 00:12:07;;;;;;;5.30;4.07;;;12.00;99.90;;;;;;5037149;28;20461;-80
2022/10/01 00:14:38;;;;;;;4.60;4.00;;;12.00;99.90;;;;;;5036787;28;20481;-80
2022/10/01 00:17:06;;;;;;;4.40;4.00;;;12.00;99.90;;;;;;5038284;28;20781;-79
2022/10/01 00:19:34;;;;;;;4.90;4.20;;;12.00;99.90;;;;;;5038215;28;20469;-79
2022/10/01 00:22:02;;;;;;;6.73;4.67;;;11.90;99.90;;;;;;5036362;28;20484;-79
2022/10/01 00:24:30;;;;;;;4.77;4.03;;;11.90;99.90;;;;;;5036279;28;21033;-79
2022/10/01 00:27:00;;;;;;;4.53;3.90;;;11.90;99.90;;;;;;5036126;28;20443;-80
2022/10/01 00:29:28;;;;;;;5.30;4.47;;;12.00;99.90;;;;;;5036644;28;20458;-80
2022/10/01 00:31:56;;;;;;;4.60;4.20;;;11.90;99.90;;;;;;5037883;28;20459;-79
2022/10/01 00:34:25;;;;;;;5.10;4.70;;;12.00;99.90;;;;;;5036125;28;20467;-79
2022/10/01 00:36:53;;;;;;;5.00;4.50;;;12.00;99.90;;;;;;5035921;28;20454;-79
2022/10/01 00:39:22;;;;;;;4.70;4.27;;;12.00;99.90;;;;;;5036419;28;20463;-80
2022/10/01 00:41:51;;;;;;;4.27;3.87;;;12.00;99.90;;;;;;5036433;28;20454;-80
2022/10/01 00:44:31;;;;;;;5.43;4.80;;;12.00;99.90;;;;;;5037468;28;20528;-80
2022/10/01 00:47:05;;;;;;;5.47;4.40;;;12.00;99.90;;;;;;5035947;28;20447;-80
2022/10/01 00:49:36;;;;;;;5.07;4.63;;;12.00;99.90;;;;;;5036236;28;20447;-79
2022/10/01 00:52:09;;;;;;;4.40;4.00;;;12.00;99.90;;;;;;5038091;28;20426;-79
2022/10/01 00:54:43;;;;;;;4.80;4.20;;;12.00;99.90;;;;;;5035672;28;20570;-80
2022/10/01 00:57:13;;;;;;;4.83;4.17;;;12.00;99.90;;;;;;5035722;28;20928;-80
2022/10/01 00:59:43;;;;;;;5.40;4.50;;;12.00;99.90;;;;;;5037386;28;20475;-80
2022/10/01 01:02:11;;;;;;;5.83;4.53;;;12.00;99.90;;;;;;5035971;28;20434;-79
2022/10/01 01:04:40;;;;;;;6.40;4.83;;;12.00;99.90;;;;;;5040865;28;21033;-79
2022/10/01 01:07:09;;;;;;;6.30;4.40;;;12.00;99.90;;;;;;5037901;28;20490;-79
2022/10/01 01:09:42;;;;;;;5.73;4.53;;;12.00;99.90;;;;;;5038404;28;20447;-79
2022/10/01 01:12:23;;;;;;;5.93;4.60;;;12.00;99.90;;;;;;5039263;28;20416;-79
2022/10/01 01:15:04;;;;;;;4.60;4.20;;;12.00;99.90;;;;;;5037687;28;21095;-80
2022/10/01 01:17:39;;;;;;;5.20;4.80;;;12.00;99.90;;;;;;5037742;28;20442;-81
2022/10/01 01:20:29;;;;;;;5.13;4.60;;;12.00;99.90;;;;;;5037838;28;20493;-81
2022/10/01 01:23:11;;;;;;;5.67;4.63;;;12.00;99.90;;;;;;5037100;28;20538;-81
2022/10/01 01:25:47;;;;;;;4.93;4.53;;;12.00;99.90;;;;;;5037524;28;20465;-81
2022/10/01 01:28:23;;;;;;;4.80;4.40;;;12.00;99.90;;;;;;5037824;28;20481;-80
2022/10/01 01:30:55;;;;;;;5.27;4.77;;;12.00;99.90;;;;;;5038523;28;20951;-80
2022/10/01 01:33:26;;;;;;;5.07;4.57;;;12.00;99.90;;;;;;5038429;28;20466;-80
2022/10/01 01:35:58;;;;;;;4.80;4.40;;;12.00;99.90;;;;;;5036641;28;20534;-81
2022/10/01 01:38:33;;;;;;;4.90;4.50;;;12.10;99.90;;;;;;5037050;28;20780;-80
2022/10/01 01:41:03;;;;;;;6.10;5.50;;;12.00;99.90;;;;;;5038304;28;20474;-80
2022/10/01 01:43:37;;;;;;;5.30;4.80;;;12.00;99.90;;;;;;5036278;28;20549;-80
2022/10/01 01:46:07;;;;;;;5.47;4.97;;;12.00;99.90;;;;;;5038279;28;20423;-80
2022/10/01 01:48:40;;;;;;;5.20;4.50;;;12.00;99.90;;;;;;5037209;28;20443;-80
2022/10/01 01:51:14;;;;;;;5.27;4.77;;;12.00;99.90;;;;;;5036515;28;20525;-81
2022/10/01 01:53:42;;;;;;;6.13;4.93;;;12.00;99.90;;;;;;5036599;28;20475;-79
2022/10/01 01:56:11;;;;;;;5.17;4.77;;;12.00;99.90;;;;;;5036634;28;20557;-81
2022/10/01 01:58:40;;;;;;;6.10;5.50;;;12.00;99.90;;;;;;5036502;28;20473;-81
2022/10/01 02:01:37;;;;;;;5.23;4.73;;;12.00;99.90;;;;;;5036710;28;20543;-80
2022/10/01 02:04:11;;;;;;;5.37;4.87;;;12.00;99.90;;;;;;5035645;28;20466;-81
2022/10/01 02:06:55;;;;;;;5.83;5.30;;;12.00;99.90;;;;;;5035484;28;20863;-79
2022/10/01 02:09:28;;;;;;;5.83;5.03;;;12.00;99.90;;;;;;5036053;28;20443;-79
2022/10/01 02:12:08;;;;;;;6.10;5.50;;;12.00;99.90;;;;;;5037328;28;20485;-79
2022/10/01 02:14:48;;;;;;;5.90;5.30;;;11.90;99.90;;;;;;5035054;28;20474;-81
2022/10/01 02:17:26;;;;;;;6.07;5.50;;;11.90;99.90;;;;;;5036871;28;20421;-81
2022/10/01 02:19:58;;;;;;;6.00;5.50;;;11.90;99.90;;;;;;5036661;28;20427;-81
2022/10/01 02:22:34;;;;;;;5.27;4.80;;;11.90;99.90;;;;;;5037316;28;20459;-81
2022/10/01 02:25:06;;;;;;;6.13;5.53;;;11.90;99.90;;;;;;5035528;28;20471;-82
2022/10/01 02:27:39;;;;;;;6.47;5.87;;;11.90;99.90;;;;;;5036954;28;20438;-82
2022/10/01 02:30:11;;;;;;;6.63;6.00;;;11.90;99.90;;;;;;5037102;28;20826;-81
2022/10/01 02:32:42;;;;;;;6.60;6.00;;;11.90;99.90;;;;;;5036334;28;20982;-80
2022/10/01 02:35:14;;;;;;;6.47;5.97;;;11.90;99.90;;;;;;5040569;28;20478;-81
2022/10/01 02:37:44;;;;;;;7.23;6.53;;;11.80;99.90;;;;;;5038830;28;20438;-81
2022/10/01 02:40:16;;;;;;;7.40;6.80;;;11.80;99.90;;;;;;5039831;28;20477;-80
2022/10/01 02:42:48;;;;;;;6.90;6.30;;;11.80;99.90;;;;;;5038703;28;20511;-81
2022/10/01 02:45:21;;;;;;;7.70;7.00;;;11.80;99.90;;;;;;5040705;28;20423;-81
2022/10/01 02:47:54;;;;;;;9.87;6.60;;;11.80;99.90;;;;;;5039413;28;20810;-80
2022/10/01 02:50:25;;;;;;;6.70;6.10;;;11.80;99.90;;;;;;5040407;28;20435;-80
2022/10/01 02:52:58;;;;;;;7.10;6.50;;;11.70;99.90;;;;;;5040444;28;20415;-80
2022/10/01 02:55:30;;;;;;;8.53;7.73;;;11.70;99.90;;;;;;5039455;28;20865;-79
2022/10/01 02:57:57;;;;;;;8.33;7.60;;;11.70;99.90;;;;;;5038629;28;20434;-79
2022/10/01 03:00:28;;;;;;;7.70;6.90;;;11.70;99.90;;;;;;5037845;28;20474;-78
2022/10/01 03:02:56;;;;;;;7.90;7.20;;;11.60;99.90;;;;;;5043540;28;20447;-80
2022/10/01 03:05:24;;;;;;;8.27;7.57;;;11.70;99.90;;;;;;5044079;28;20506;-80
2022/10/01 03:07:52;;;;;;;8.33;7.53;;;11.60;99.90;;;;;;5042286;28;20447;-80
2022/10/01 03:10:21;;;;;;;8.80;8.10;;;11.60;99.90;;;;;;5042993;28;20457;-80
2022/10/01 03:12:49;;;;;;;8.60;7.70;;;11.60;99.90;;;;;;5040325;28;20512;-80
2022/10/01 03:15:19;;;;;;;9.50;8.60;;;11.60;99.90;;;;;;5041292;28;20442;-80
2022/10/01 03:17:51;;;;;;;9.60;8.80;;;11.50;99.90;;;;;;5040057;28;20482;-80
2022/10/01 03:20:19;;;;;;;9.30;8.50;;;11.50;99.90;;;;;;5041646;28;20935;-79
2022/10/01 03:22:48;;;;;;;9.57;8.67;;;11.50;99.90;;;;;;5038823;28;20963;-79
2022/10/01 03:25:16;;;;;;;9.70;8.80;;;11.50;99.90;;;;;;5038758;28;20821;-79
2022/10/01 03:27:45;;;;;;;9.90;9.10;;;11.50;99.90;;;;;;5040148;28;20449;-78
2022/10/01 03:30:13;;;;;;;10.33;9.43;;;11.50;99.90;;;;;;5038886;28;20473;-79
2022/10/01 03:32:42;;;;;;;10.90;9.83;;;11.50;99.90;;;;;;5039972;28;20804;-78
2022/10/01 03:35:11;;;;;;;9.77;8.97;;;11.40;99.90;;;;;;5039612;28;20434;-79
2022/10/01 03:37:39;;;;;;;9.73;8.93;;;11.40;99.90;;;;;;5038272;28;20509;-79
2022/10/01 03:40:08;;;;;;;11.00;9.90;;;11.40;99.90;;;;;;5038018;28;20457;-79
2022/10/01 03:42:36;;;;;;;11.47;10.47;;;11.40;99.90;;;;;;5037986;28;20642;-78
2022/10/01 03:45:05;;;;;;;12.20;11.10;;;11.40;99.90;;;;;;5037136;28;20554;-79
2022/10/01 03:47:33;;;;;;;13.07;11.87;;;11.40;99.90;;;;;;5038868;28;20447;-77
2022/10/01 03:50:01;;;;;;;12.00;10.90;;;11.40;99.90;;;;;;5036906;28;20812;-77
2022/10/01 03:52:31;;;;;;;13.90;12.70;;;11.30;99.90;;;;;;5036503;28;20439;-78
2022/10/01 03:54:59;;;;;;;11.80;10.70;;;11.30;99.90;;;;;;5036470;28;20463;-78
2022/10/01 03:57:27;;;;;;;11.70;10.63;;;11.30;99.90;;;;;;5036075;28;20804;-77
2022/10/01 03:59:56;;;;;;;12.90;11.80;;;11.30;99.90;;;;;;5036139;28;20478;-77
2022/10/01 04:02:26;;;;;;;12.77;11.67;;;11.30;99.90;;;;;;5037370;28;20475;-77
2022/10/01 04:04:54;;;;;;;12.43;11.43;;;11.30;99.90;;;;;;5036266;28;20569;-78
2022/10/01 04:07:22;;;;;;;12.27;11.17;;;11.20;99.90;;;;;;5037039;28;20454;-77
2022/10/01 04:09:52;;;;;;;11.73;10.40;;;11.20;99.90;;;;;;5036246;28;20817;-77
2022/10/01 04:12:20;;;;;;;12.23;11.20;;;11.20;99.90;;;;;;5035889;28;20436;-77
2022/10/01 04:14:48;;;;;;;11.50;10.60;;;11.20;99.90;;;;;;5035312;28;20463;-77
2022/10/01 04:17:16;;;;;;;11.97;11.00;;;11.20;99.90;;;;;;5035231;28;20451;-77
2022/10/01 04:19:44;;;;;;;11.80;10.77;;;11.20;99.90;;;;;;5036234;28;20447;-77
2022/10/01 04:22:12;;;;;;;11.10;10.13;;;11.20;99.90;;;;;;5035462;28;20473;-76
2022/10/01 04:24:40;;;;;;;11.00;10.10;;;11.20;99.90;;;;;;5034108;28;20470;-77
2022/10/01 04:27:10;;;;;;;10.37;9.57;;;11.20;99.90;;;;;;5035498;28;20435;-77
2022/10/01 04:29:38;;;;;;;11.37;10.37;;;11.20;99.90;;;;;;5037322;28;20457;-77
2022/10/01 04:32:07;;;;;;;11.07;10.07;;;11.10;99.90;;;;;;5035995;28;20933;-77
2022/10/01 04:37:17;;;;;;;10.50;9.60;;;11.10;99.90;;;;;;5035315;28;20963;-77
2022/10/01 04:39:45;;;;;;;11.13;10.13;;;11.10;99.90;;;;;;5034827;28;20505;-77
2022/10/01 04:42:15;;;;;;;10.17;9.27;;;11.10;99.90;;;;;;5035017;28;20992;-77
2022/10/01 04:44:43;;;;;;;10.17;9.33;;;11.10;99.90;;;;;;5035800;28;20455;-77
2022/10/01 04:47:11;;;;;;;9.90;8.90;;;11.10;99.90;;;;;;5036014;28;20500;-77
2022/10/01 04:49:39;;;;;;;9.50;8.70;;;11.10;99.90;;;;;;5035973;28;20995;-77
2022/10/01 04:52:07;;;;;;;9.90;9.10;;;11.10;99.90;;;;;;5036127;28;20497;-78
2022/10/01 04:54:35;;;;;;;9.83;9.00;;;11.10;99.90;;;;;;5036883;28;20521;-78
2022/10/01 04:57:03;;;;;;;10.07;9.13;;;11.10;99.90;;;;;;5037030;28;20952;-77
2022/10/01 04:59:33;;;;;;;10.20;9.40;;;11.10;99.90;;;;;;5035677;28;20451;-78
2022/10/01 05:02:01;;;;;;;10.40;9.50;;;11.10;99.90;;;;;;5035533;28;20471;-77
2022/10/01 05:04:29;;;;;;;11.30;10.30;;;11.10;99.90;;;;;;5034437;28;20550;-77
2022/10/01 05:06:57;;;;;;;10.37;9.43;;;11.10;99.90;;;;;;5034290;28;20461;-77
2022/10/01 05:09:25;;;;;;;9.90;9.10;;;11.10;99.90;;;;;;5034107;28;20447;-77
2022/10/01 05:11:53;;;;;;;9.33;8.53;;;11.10;99.90;;;;;;5035929;28;20454;-77
2022/10/01 05:14:21;;;;;;;9.27;8.57;;;11.10;99.90;;;;;;5035521;28;20508;-78
2022/10/01 05:16:51;;;;;;;10.47;9.60;;;11.10;99.90;;;;;;5035196;28;20454;-77
2022/10/01 05:19:20;;;;;;;8.53;7.90;;;11.10;99.90;;;;;;5034300;28;20451;-76
2022/10/01 05:21:50;;;;;;;10.77;9.77;;;11.10;99.90;;;;;;5035057;28;20459;-77
2022/10/01 05:24:18;;;;;;;9.63;8.83;;;11.10;99.90;;;;;;5035367;28;20458;-77
2022/10/01 05:26:46;;;;;;;9.07;8.17;;;11.10;99.90;;;;;;5035626;28;20470;-77
2022/10/01 05:29:15;;;;;;;8.73;8.03;;;11.10;99.90;;;;;;5033937;28;20454;-77
2022/10/01 05:31:43;;;;;;;9.47;8.67;;;11.20;99.90;;;;;;5035457;28;20936;-77
2022/10/01 05:34:13;;;;;;;8.93;8.23;;;11.10;99.90;;;;;;5033758;28;20463;-77
2022/10/01 05:36:41;;;;;;;9.13;8.43;;;11.20;99.90;;;;;;5034041;28;20454;-77
2022/10/01 05:39:10;;;;;;;10.00;9.10;;;11.20;99.90;;;;;;5034451;28;20447;-77
2022/10/01 05:41:39;;;;;;;9.20;8.47;;;11.20;99.90;;;;;;5035829;28;20465;-78
2022/10/01 05:44:08;;;;;;;8.83;8.10;;;11.20;99.90;;;;;;5033964;28;20928;-78
2022/10/01 05:46:36;;;;;;;8.90;8.20;;;11.20;99.90;;;;;;5035732;28;20509;-77
2022/10/01 05:49:05;;;;;;;9.43;8.63;;;11.20;99.90;;;;;;5033435;28;20486;-77
2022/10/01 05:51:35;;;;;;;9.43;8.57;;;11.20;99.90;;;;;;5034205;28;20931;-77
2022/10/01 05:54:04;;;;;;;9.10;8.40;;;11.20;99.90;;;;;;5033852;28;20562;-78
2022/10/01 05:56:32;;;;;;;8.30;7.67;;;11.20;99.90;;;;;;5033604;28;20450;-78
2022/10/01 05:59:00;;;;;;;9.20;8.40;;;11.20;99.90;;;;;;5035142;28;20493;-77
2022/10/01 06:01:28;;;;;;;8.67;7.97;;;11.20;99.90;;;;;;5035592;28;20451;-78
2022/10/01 06:03:56;;;;;;;8.63;7.83;;;11.20;99.90;;;;;;5035138;28;20553;-78
2022/10/01 06:06:26;;;;;;;8.33;7.70;;;11.20;99.90;;;;;;5033175;28;20439;-77
2022/10/01 06:08:55;;;;;;;8.80;8.10;;;11.20;99.90;;;;;;5035844;28;20450;-77
2022/10/01 06:11:25;;;;;;;7.80;7.00;;;11.20;99.90;;;;;;5035472;28;20822;-77
2022/10/01 06:13:54;;;;;;;8.17;7.57;;;11.20;99.90;;;;;;5033171;28;20463;-77
2022/10/01 06:16:22;;;;;;;8.60;7.70;;;11.10;99.90;;;;;;5033459;28;20447;-77
2022/10/01 06:18:56;;;;;;;7.67;6.97;;;11.20;99.90;;;;;;5033572;28;20447;-77
2022/10/01 06:21:24;;;;;;;7.57;6.97;;;11.20;99.90;;;;;;5034582;28;20415;-76
2022/10/01 06:23:53;;;;;;;7.73;7.03;;;11.20;99.90;;;;;;5034032;28;20482;-76
2022/10/01 06:26:23;;;;;;;7.47;6.87;;;11.20;99.90;;;;;;5034984;28;20775;-76
2022/10/01 06:28:51;;;;;;;7.17;6.57;;;11.20;99.90;;;;;;5034782;28;20446;-77
2022/10/01 06:31:21;;;;;;;7.70;7.00;;;11.20;99.90;;;;;;5033288;28;20814;-77
2022/10/01 06:33:49;;;;;;;8.40;7.60;;;11.20;99.90;;;;;;5034797;28;20991;-77
2022/10/01 06:36:18;;;;;;;6.53;5.93;;;11.20;99.90;;;;;;5034999;28;20443;-76
2022/10/01 06:38:48;;;;;;;6.30;5.80;;;11.20;99.90;;;;;;5034506;28;20446;-77
2022/10/01 06:41:17;;;;;;;6.43;5.87;;;11.20;99.90;;;;;;5033734;28;20455;-77
2022/10/01 06:43:48;;;;;;;7.43;6.83;;;11.20;99.90;;;;;;5033180;28;20486;-77
2022/10/01 06:46:17;;;;;;;7.40;6.80;;;11.20;99.90;;;;;;5032520;28;20438;-77
2022/10/01 06:48:45;;;;;;;7.50;6.90;;;11.20;99.90;;;;;;5033546;28;20458;-77
2022/10/01 06:51:13;;;;;;;7.10;6.50;;;11.30;99.90;;;;;;5033508;28;20439;-77
2022/10/01 06:53:40;;;;;;;6.57;5.97;;;11.20;99.90;;;;;;5033549;28;20542;-77
2022/10/01 06:56:08;;;;;;;6.27;5.67;;;11.20;99.90;;;;;;5033624;28;20442;-77
2022/10/01 06:58:37;;;;;;;6.77;6.17;;;11.30;99.90;;;;;;5033915;28;20439;-77
2022/10/01 07:01:07;;;;;;;6.97;6.37;;;11.30;99.90;;;;;;5033783;28;20434;-77
2022/10/01 07:03:35;;;;;;;6.50;6.00;;;11.30;99.90;;;;;;5031700;28;20479;-77
2022/10/01 07:06:06;;;;;;;7.03;6.33;;;11.30;99.90;;;;;;5033637;28;20956;-77
2022/10/01 07:08:35;;;;;;;6.80;6.20;;;11.30;99.90;;;;;;5032465;28;20454;-77
2022/10/01 07:11:03;;;;;;;6.37;5.87;;;11.30;99.90;;;;;;5032301;28;20469;-77
2022/10/01 07:13:32;;;;;;;6.77;6.17;;;11.30;99.90;;;;;;5033136;28;20479;-77
2022/10/01 07:16:03;;;;;;;6.53;6.03;;;11.30;99.90;;;;;;5033332;28;20933;-77
2022/10/01 07:18:33;;;;;;;7.33;6.73;;;11.40;99.90;;;;;;5034697;28;20443;-77
2022/10/01 07:21:01;;;;;;;6.97;6.37;;;11.40;99.90;;;;;;5035562;28;20815;-77
2022/10/01 07:23:29;;;;;;;6.50;6.03;;;11.40;99.90;;;;;;5036926;28;20573;-77
2022/10/01 07:25:57;;;;;;;6.87;6.37;;;11.40;99.90;;;;;;5037467;28;20446;-77
2022/10/01 07:28:26;;;;;;;6.53;5.93;;;11.40;99.90;;;;;;5037366;28;20443;-77
2022/10/01 07:31:00;;;;;;;7.17;6.67;;;11.40;99.90;;;;;;5036563;28;20537;-77
2022/10/01 07:33:28;;;;;;;7.93;7.33;;;11.50;99.90;;;;;;5038937;28;20462;-77
2022/10/01 07:36:01;;;;;;;7.87;7.27;;;11.50;99.90;;;;;;5037170;28;20455;-78
2022/10/01 07:38:29;;;;;;;8.70;8.00;;;11.50;99.90;;;;;;5038419;28;20450;-78
2022/10/01 07:40:57;;;;;;;8.73;8.03;;;11.50;99.90;;;;;;5036291;28;20863;-77
2022/10/01 07:43:26;;;;;;;8.87;8.17;;;11.50;99.90;;;;;;5037529;28;21027;-76
2022/10/01 07:45:56;;;;;;;8.80;8.13;;;11.50;99.90;;;;;;5036012;28;20443;-77
2022/10/01 07:48:25;;;;;;;9.30;8.60;;;11.60;99.90;;;;;;5036058;28;20880;-77
2022/10/01 07:50:53;;;;;;;10.33;9.53;;;11.60;99.90;;;;;;5035843;28;20439;-77
2022/10/01 07:53:24;;;;;;;10.60;9.80;;;11.60;99.90;;;;;;5035988;28;20493;-77
2022/10/01 07:55:52;;;;;;;10.00;9.30;;;11.70;99.90;;;;;;5036389;28;20479;-77
2022/10/01 07:58:22;;;;;;;10.40;9.70;;;11.70;99.90;;;;;;5035588;28;20447;-77
2022/10/01 08:00:54;;;;;;;11.13;10.33;;;11.70;99.90;;;;;;5035786;28;20497;-77
2022/10/01 08:03:23;;;;;;;11.43;10.63;;;11.80;99.90;;;;;;5036710;28;20485;-77
2022/10/01 08:05:53;;;;;;;12.07;11.13;;;11.90;99.90;;;;;;5036199;28;20439;-78
2022/10/01 08:08:23;;;;;;;12.73;11.83;;;11.90;99.90;;;;;;5035664;28;20466;-78
2022/10/01 08:10:51;;;;;;;12.27;11.40;;;11.90;99.90;;;;;;5036954;28;20845;-77
2022/10/01 08:13:23;;;;;;;13.10;12.20;;;12.00;99.90;;;;;;5035493;28;20467;-76
2022/10/01 08:15:53;;;;;;;14.00;13.00;;;12.00;99.90;;;;;;5036057;28;20458;-77
2022/10/01 08:18:22;;;;;;;13.80;12.90;;;12.00;99.90;;;;;;5036561;28;20456;-77
2022/10/01 08:20:51;;;;;;;13.53;12.63;;;12.10;99.90;;;;;;5037055;28;20442;-78
2022/10/01 08:23:19;;;;;;;14.20;13.20;;;12.10;99.90;;;;;;5037030;28;20481;-77
2022/10/01 08:25:48;;;;;;;13.90;13.00;;;12.10;99.90;;;;;;5036850;28;20488;-77
2022/10/01 08:28:17;;;;;;;14.30;13.30;;;12.10;99.90;;;;;;5036334;28;20447;-78
2022/10/01 08:30:45;;;;;;;14.57;13.57;;;12.20;99.90;;;;;;5037956;28;20838;-78
2022/10/01 08:33:14;;;;;;;14.93;13.73;;;12.20;99.90;;;;;;5039538;28;20455;-78
2022/10/01 08:35:43;;;;;;;15.83;14.73;;;12.20;99.90;;;;;;5037630;28;20439;-78
2022/10/01 08:38:12;;;;;;;14.63;13.60;;;12.20;99.90;;;;;;5035368;28;20820;-78
2022/10/01 08:40:45;;;;;;;14.53;13.43;;;12.20;99.90;;;;;;5034964;28;20455;-77
2022/10/01 08:43:27;;;;;;;15.27;14.27;;;12.30;99.90;;;;;;5036658;28;20470;-77
2022/10/01 08:45:59;;;;;;;15.13;14.00;;;12.30;99.90;;;;;;5035393;28;20446;-77
2022/10/01 08:48:50;;;;;;;15.87;14.67;;;12.30;99.90;;;;;;5036720;28;20458;-77
2022/10/01 08:51:28;;;;;;;14.93;13.93;;;12.40;99.90;;;;;;5037306;28;20550;-78
2022/10/01 08:54:01;;;;;;;13.87;12.80;;;12.40;99.90;;;;;;5037732;28;20461;-78
2022/10/01 08:56:34;;;;;;;15.17;14.13;;;12.50;99.90;;;;;;5035907;28;20439;-78
2022/10/01 08:59:10;;;;;;;15.20;14.20;;;12.50;99.90;;;;;;5035176;28;20443;-77
2022/10/01 09:01:38;;;;;;;15.40;14.33;;;12.50;99.90;;;;;;5035081;28;20932;-78
2022/10/01 09:04:07;;;;;;;14.73;13.53;;;12.60;99.90;;;;;;5036081;28;21033;-78
2022/10/01 09:06:36;;;;;;;15.00;13.97;;;12.60;99.90;;;;;;5035862;28;20470;-78
2022/10/01 09:09:22;;;;;;;15.10;13.90;;;12.70;99.90;;;;;;5036177;28;20455;-78
2022/10/01 09:12:09;;;;;;;14.43;13.33;;;12.70;99.90;;;;;;5036966;28;20423;-78
2022/10/01 09:15:02;;;;;;;14.77;13.77;;;12.80;99.90;;;;;;5035211;28;20482;-78
2022/10/01 09:17:48;;;;;;;15.50;14.40;;;12.90;99.90;;;;;;5027452;28;20948;-75
2022/10/01 09:20:25;;;;;;;15.10;13.87;;;13.00;99.90;;;;;;5033782;28;20538;-76
2022/10/01 09:23:06;;;;;;;14.63;13.43;;;13.00;99.90;;;;;;5035796;28;20447;-79
2022/10/01 09:25:37;;;;;;;14.33;13.10;;;13.10;99.90;;;;;;5034196;28;20469;-77
2022/10/01 09:28:13;;;;;;;14.10;13.10;;;13.20;99.90;;;;;;5034244;28;20423;-76
2022/10/01 09:30:48;;;;;;;14.43;13.13;;;13.30;99.90;;;;;;5035506;28;20450;-77
2022/10/01 09:33:19;;;;;;;13.73;12.73;;;13.40;99.90;;;;;;5033850;28;20536;-77
2022/10/01 09:35:51;;;;;;;14.30;13.20;;;13.50;99.90;;;;;;5037121;28;20414;-79
2022/10/01 09:38:24;;;;;;;15.60;14.27;;;13.60;99.90;;;;;;5036902;28;20427;-77
2022/10/01 09:40:54;;;;;;;14.00;12.73;;;13.70;99.90;;;;;;5034688;28;20419;-77
2022/10/01 09:43:26;;;;;;;14.00;12.80;;;13.70;99.90;;;;;;5033605;28;20941;-77
2022/10/01 09:45:56;;;;;;;13.57;12.27;;;13.80;99.90;;;;;;5033893;28;20452;-77
2022/10/01 09:48:32;;;;;;;13.20;11.90;;;13.90;99.90;;;;;;5034911;28;20434;-77
2022/10/01 09:51:07;;;;;;;13.57;12.47;;;13.90;99.90;;;;;;5035741;28;20462;-77
2022/10/01 09:53:40;;;;;;;13.10;12.00;;;14.00;99.90;;;;;;5035095;28;20967;-79
2022/10/01 09:56:16;;;;;;;12.10;11.00;;;14.00;99.90;;;;;;5034850;28;20447;-77
2022/10/01 09:58:51;;;;;;;12.27;11.27;;;14.00;99.90;;;;;;5035612;28;21000;-77
2022/10/01 10:01:26;;;;;;;12.67;11.53;;;14.10;99.90;;;;;;5035031;28;20541;-77
2022/10/01 10:03:56;;;;;;;12.13;11.13;;;14.10;99.90;;;;;;5034089;28;20473;-79
2022/10/01 10:06:28;;;;;;;13.47;12.07;;;14.10;99.90;;;;;;5035441;28;20475;-77
2022/10/01 10:08:58;;;;;;;13.20;11.87;;;14.20;99.90;;;;;;5036338;28;20434;-77
2022/10/01 10:11:28;;;;;;;13.10;11.10;;;14.20;99.90;;;;;;5033837;28;20435;-77
2022/10/01 10:13:59;;;;;;;11.23;10.20;;;14.30;99.90;;;;;;5035011;28;20475;-77
2022/10/01 10:16:31;;;;;;;11.43;10.33;;;14.40;99.90;;;;;;5035259;28;20422;-77
2022/10/01 10:19:03;;;;;;;12.27;11.37;;;14.50;99.90;;;;;;5035703;28;20427;-79
2022/10/01 10:21:33;;;;;;;10.10;9.20;;;14.60;99.90;;;;;;5033324;28;20529;-77
2022/10/01 10:24:03;;;;;;;10.13;8.70;;;14.60;99.90;;;;;;5034670;28;20459;-77
2022/10/01 10:26:34;;;;;;;9.50;8.60;;;14.80;99.90;;;;;;5035026;28;20856;-78
2022/10/01 10:29:04;;;;;;;9.37;8.57;;;14.90;99.90;;;;;;5034911;28;20429;-77
2022/10/01 10:31:41;;;;;;;8.53;7.63;;;14.90;99.90;;;;;;5033116;28;20459;-78
2022/10/01 10:34:15;;;;;;;8.33;7.63;;;15.00;99.90;;;;;;5035747;28;20470;-77
2022/10/01 10:36:45;;;;;;;10.57;8.40;;;15.00;99.90;;;;;;5036124;28;20518;-79
2022/10/01 10:39:20;;;;;;;9.23;7.30;;;15.10;99.90;;;;;;5033710;28;20542;-77
2022/10/01 10:41:50;;;;;;;7.77;7.00;;;15.20;99.90;;;;;;5036296;28;20430;-79
2022/10/01 10:44:21;;;;;;;7.40;6.70;;;15.20;99.90;;;;;;5034154;28;20499;-78
2022/10/01 10:46:53;;;;;;;10.00;7.00;;;15.30;99.90;;;;;;5036643;28;20422;-79
2022/10/01 10:49:25;;;;;;;10.10;6.10;;;15.30;99.90;;;;;;5035104;28;20450;-79
2022/10/01 10:51:54;;;;;;;8.30;6.60;;;15.40;99.90;;;;;;5034716;28;20467;-77
2022/10/01 10:54:30;;;;;;;6.20;5.60;;;15.40;99.90;;;;;;5038964;28;20459;-79
2022/10/01 10:57:01;;;;;;;5.77;5.13;;;15.40;99.90;;;;;;5039189;28;20433;-77
2022/10/01 10:59:38;;;;;;;6.03;4.63;;;15.50;99.90;;;;;;5037500;28;20822;-78
2022/10/01 11:02:16;;;;;;;5.60;4.80;;;15.60;99.90;;;;;;5038835;28;20420;-78
2022/10/01 11:04:46;;;;;;;7.43;4.90;;;15.60;99.90;;;;;;5037547;28;20501;-77
2022/10/01 11:07:20;;;;;;;6.57;5.10;;;15.70;99.90;;;;;;5038615;28;20446;-77
2022/10/01 11:10:07;;;;;;;8.00;4.40;;;15.80;99.90;;;;;;5038853;28;20423;-78
2022/10/01 11:12:50;;;;;;;7.10;3.73;;;15.90;99.90;;;;;;5039769;28;20415;-80
2022/10/01 11:15:30;;;;;;;7.00;3.60;;;16.00;99.90;;;;;;5037831;28;20409;-78
2022/10/01 11:18:22;;;;;;;6.30;3.90;;;16.10;99.90;;;;;;5041000;28;20462;-79
2022/10/01 11:20:59;;;;;;;8.50;4.33;;;16.20;99.90;;;;;;5040058;28;20454;-77
2022/10/01 11:23:54;;;;;;;6.20;4.00;;;16.30;99.90;;;;;;5038905;28;20433;-80
2022/10/01 11:26:30;;;;;;;10.57;4.57;;;16.40;99.90;;;;;;5039357;28;20459;-77
2022/10/01 11:29:12;;;;;;;8.40;3.77;;;16.50;99.90;;;;;;5038773;28;20413;-79
2022/10/01 11:31:51;;;;;;;9.23;3.63;;;16.60;99.90;;;;;;5040084;28;20464;-79
2022/10/01 11:34:47;;;;;;;9.63;3.33;;;16.70;99.90;;;;;;5039928;28;20482;-78
2022/10/01 11:37:37;;;;;;;9.50;3.00;;;16.80;99.90;;;;;;5038898;28;20414;-80
2022/10/01 11:40:16;;;;;;;8.40;3.33;;;16.80;99.90;;;;;;5040371;28;20423;-80
2022/10/01 11:42:46;;;;;;;6.03;3.40;;;16.80;99.90;;;;;;5038651;28;20417;-79
2022/10/01 11:45:20;;;;;;;6.90;3.80;;;16.90;99.90;;;;;;5038646;28;20433;-79
2022/10/01 11:47:51;;;;;;;5.57;3.03;;;17.00;99.90;;;;;;5039400;28;20390;-79
2022/10/01 11:50:25;;;;;;;6.27;3.03;;;17.10;99.90;;;;;;5038355;28;20422;-79
2022/10/01 11:52:58;;;;;;;7.70;3.20;;;17.20;99.90;;;;;;5038258;28;20410;-79
2022/10/01 12:01:19;;;;;;;7.30;2.67;;;17.40;99.90;;;;;;5038133;28;20447;-78
2022/10/01 12:04:04;;;;;;;5.23;3.00;;;17.40;99.90;;;;;;5038034;28;20820;-78
2022/10/01 12:06:39;;;;;;;11.33;5.03;;;17.50;99.90;;;;;;5037504;28;20519;-79
2022/10/01 12:09:15;;;;;;;6.10;2.90;;;17.50;99.90;;;;;;5037896;28;20441;-80
2022/10/01 12:11:49;;;;;;;8.13;2.70;;;17.40;99.90;;;;;;5037047;28;20447;-78
2022/10/01 12:14:20;;;;;;;6.70;2.90;;;17.40;99.90;;;;;;5038826;28;20802;-79
2022/10/01 12:16:54;;;;;;;6.23;2.83;;;17.30;99.90;;;;;;5037827;28;20414;-78
2022/10/01 12:19:26;;;;;;;6.60;3.10;;;17.30;99.90;;;;;;5038607;28;20405;-77
2022/10/01 12:22:00;;;;;;;6.70;3.27;;;17.30;99.90;;;;;;5036395;28;20405;-78
2022/10/01 12:24:31;;;;;;;5.17;3.10;;;17.20;99.90;;;;;;5037151;28;20450;-78
2022/10/01 12:27:14;;;;;;;6.20;3.90;;;17.10;99.90;;;;;;5038107;28;20462;-77
2022/10/01 12:29:48;;;;;;;6.50;3.63;;;17.10;99.90;;;;;;5038328;28;20426;-78
2022/10/01 12:32:24;;;;;;;4.93;2.17;;;17.00;99.90;;;;;;5036211;28;20436;-79
2022/10/01 12:35:05;;;;;;;3.63;1.77;;;17.00;99.90;;;;;;5037435;28;20446;-80
2022/10/01 12:37:48;;;;;;;2.73;1.57;;;16.90;99.90;;;;;;5039007;28;20406;-78
2022/10/01 12:40:25;;;;;;;4.37;1.33;;;16.70;99.90;;;;;;5038258;28;20444;-79
2022/10/01 12:43:08;;;;;;;4.33;1.33;;;16.60;99.90;;;;;;5040376;28;20496;-79
2022/10/01 12:45:49;;;;;;;2.70;1.10;;;16.50;99.90;;;;;;5040506;28;20426;-79
2022/10/01 12:48:23;;;;;;;2.37;0.80;;;16.50;99.90;;;;;;5035670;28;20448;-77
2022/10/01 12:51:13;;;;;;;3.07;0.87;;;16.40;99.90;;;;;;5036674;28;20442;-78
2022/10/01 12:53:50;;;;;;;3.80;0.90;;;16.30;99.90;;;;;;5039048;28;20942;-79
2022/10/01 12:56:29;;;;;;;2.37;0.70;;;16.20;99.90;;;;;;5036825;28;20920;-78
2022/10/01 12:59:15;;;;;;;3.10;0.97;;;16.10;99.90;;;;;;5037828;28;20400;-78
2022/10/01 13:01:55;;;;;;;3.40;1.20;;;15.90;99.90;;;;;;5037558;28;20439;-78
2022/10/01 13:04:42;;;;;;;3.53;1.33;;;15.90;99.90;;;;;;5036263;28;20467;-79
2022/10/01 13:07:49;;;;;;;2.57;1.00;;;15.80;99.90;;;;;;5037915;28;20466;-78
2022/10/01 13:10:35;;;;;;;2.63;1.03;;;15.70;99.90;;;;;;5023977;28;20428;-79
2022/10/01 13:13:09;;;;;;;3.20;1.13;;;15.70;99.90;;;;;;5035740;28;20438;-77
2022/10/01 13:15:39;;;;;;;3.30;1.10;;;15.70;99.90;;;;;;5036863;28;20419;-78